createdAt,value
2023-04-02T00:00:24.810Z,17.00
2023-04-02T00:03:44.618Z,16.90
2023-04-02T00:06:46.768Z,16.80
2023-04-02T00:09:48.792Z,16.70
2023-04-02T00:13:23.721Z,16.70
2023-04-02T00:16:27.506Z,16.70
2023-04-02T00:19:41.757Z,16.60
2023-04-02T00:22:44.971Z,16.60
2023-04-02T00:25:47.402Z,16.50
2023-04-02T00:28:50.993Z,16.50
2023-04-02T00:31:55.746Z,16.50
2023-04-02T00:34:59.018Z,16.40
2023-04-02T00:38:02.137Z,16.40
2023-04-02T00:41:06.788Z,16.30
2023-04-02T00:44:21.804Z,16.30
2023-04-02T00:47:27.688Z,16.20
2023-04-02T00:50:40.656Z,16.20
2023-04-02T00:53:46.618Z,16.30
2023-04-02T00:56:55.383Z,16.20
2023-04-02T01:00:22.459Z,16.20
2023-04-02T01:03:37.870Z,16.10
2023-04-02T01:06:40.364Z,16.10
2023-04-02T01:09:55.350Z,16.00
2023-04-02T01:13:06.145Z,16.00
2023-04-02T01:16:15.494Z,16.00
2023-04-02T01:20:01.989Z,16.00
2023-04-02T01:23:05.904Z,16.00
2023-04-02T01:26:13.948Z,15.90
2023-04-02T01:29:20.769Z,15.90
2023-04-02T01:32:25.681Z,15.90
2023-04-02T01:35:32.583Z,15.90
2023-04-02T01:38:46.355Z,16.00
2023-04-02T01:42:11.413Z,16.00
2023-04-02T01:45:17.619Z,16.00
2023-04-02T01:48:24.867Z,16.00
2023-04-02T01:51:32.929Z,15.90
2023-04-02T01:54:37.972Z,15.80
2023-04-02T01:57:47.172Z,15.80
2023-04-02T02:01:04.055Z,15.80
2023-04-02T02:04:10.340Z,15.90
2023-04-02T02:07:16.524Z,15.90
2023-04-02T02:10:26.620Z,15.90
2023-04-02T02:13:32.027Z,15.80
2023-04-02T02:16:41.990Z,15.80
2023-04-02T02:19:51.610Z,15.80
2023-04-02T02:22:54.637Z,15.90
2023-04-02T02:25:57.139Z,15.70
2023-04-02T02:29:00.981Z,15.70
2023-04-02T02:32:04.710Z,15.70
2023-04-02T02:35:29.578Z,15.60
2023-04-02T02:38:48.869Z,15.50
2023-04-02T02:42:03.561Z,15.50
2023-04-02T02:45:11.644Z,15.40
2023-04-02T02:48:18.188Z,15.40
2023-04-02T02:51:39.485Z,15.40
2023-04-02T02:54:55.314Z,15.30
2023-04-02T02:58:04.651Z,15.30
2023-04-02T03:01:06.866Z,15.20
2023-04-02T03:04:09.311Z,15.20
2023-04-02T03:07:11.493Z,15.20
2023-04-02T03:10:47.371Z,15.20
2023-04-02T03:13:52.349Z,15.10
2023-04-02T03:17:09.240Z,15.10
2023-04-02T03:20:26.988Z,15.10
2023-04-02T03:23:46.288Z,15.00
2023-04-02T03:27:06.137Z,15.00
2023-04-02T03:30:36.593Z,14.90
2023-04-02T03:33:50.551Z,14.90
2023-04-02T03:37:01.501Z,14.80
2023-04-02T03:40:15.309Z,14.70
2023-04-02T03:43:31.446Z,14.70
2023-04-02T03:46:49.335Z,14.60
2023-04-02T03:50:32.740Z,14.60
2023-04-02T03:53:34.948Z,14.60
2023-04-02T03:56:40.485Z,14.60
2023-04-02T04:00:05.955Z,14.60
2023-04-02T04:03:18.968Z,14.60
2023-04-02T04:06:27.581Z,14.50
2023-04-02T04:09:37.007Z,14.40
2023-04-02T04:12:47.145Z,14.40
2023-04-02T04:16:02.014Z,14.40
2023-04-02T04:19:18.268Z,14.40
2023-04-02T04:22:34.000Z,14.40
2023-04-02T04:25:40.235Z,14.30
2023-04-02T04:29:09.812Z,14.20
2023-04-02T04:32:18.345Z,14.20
2023-04-02T04:35:26.890Z,14.10
2023-04-02T04:38:40.937Z,14.20
2023-04-02T04:41:44.706Z,14.10
2023-04-02T04:44:58.957Z,14.00
2023-04-02T04:48:18.864Z,14.00
2023-04-02T04:51:54.851Z,13.90
2023-04-02T04:54:57.873Z,13.90
2023-04-02T04:58:24.100Z,13.80
2023-04-02T05:02:01.763Z,13.70
2023-04-02T05:05:04.644Z,13.70
2023-04-02T05:08:30.712Z,13.70
2023-04-02T05:11:38.180Z,13.70
2023-04-02T05:14:52.204Z,13.70
2023-04-02T05:18:00.233Z,13.70
2023-04-02T05:21:27.255Z,13.70
2023-04-02T05:25:02.746Z,13.80
2023-04-02T05:28:33.759Z,13.70
2023-04-02T05:31:42.275Z,13.80
2023-04-02T05:34:52.972Z,13.70
2023-04-02T05:37:55.959Z,13.70
2023-04-02T05:41:17.510Z,13.70
2023-04-02T05:44:32.456Z,13.70
2023-04-02T05:47:41.087Z,13.70
2023-04-02T05:50:47.426Z,13.70
2023-04-02T05:54:03.240Z,13.60
2023-04-02T05:57:11.039Z,13.60
2023-04-02T06:00:23.725Z,13.70
2023-04-02T06:03:41.890Z,13.60
2023-04-02T06:06:49.509Z,13.60
2023-04-02T06:10:07.567Z,13.50
2023-04-02T06:13:16.250Z,13.60
2023-04-02T06:16:24.211Z,13.60
2023-04-02T06:19:31.204Z,13.60
2023-04-02T06:22:39.569Z,13.60
2023-04-02T06:26:10.585Z,13.60
2023-04-02T06:29:38.414Z,13.60
2023-04-02T06:32:40.597Z,13.70
2023-04-02T06:35:46.724Z,13.70
2023-04-02T06:38:50.267Z,13.80
2023-04-02T06:42:04.667Z,13.90
2023-04-02T06:45:14.334Z,14.00
2023-04-02T06:48:21.078Z,14.10
2023-04-02T06:51:27.122Z,14.30
2023-04-02T06:54:29.223Z,14.40
2023-04-02T06:57:32.925Z,14.90
2023-04-02T07:00:46.659Z,15.60
2023-04-02T07:03:48.701Z,16.50
2023-04-02T07:06:51.482Z,17.10
2023-04-02T07:09:53.523Z,17.40
2023-04-02T07:13:05.111Z,17.70
2023-04-02T07:16:19.088Z,17.70
2023-04-02T07:19:23.163Z,18.20
2023-04-02T07:22:26.975Z,18.40
2023-04-02T07:25:29.561Z,18.70
2023-04-02T07:28:31.906Z,19.50
2023-04-02T07:31:34.024Z,20.40
2023-04-02T07:34:37.270Z,21.30
2023-04-02T07:37:39.403Z,21.70
2023-04-02T07:40:41.507Z,22.00
2023-04-02T07:43:44.539Z,21.80
2023-04-02T07:46:46.672Z,21.80
2023-04-02T07:49:48.750Z,22.10
2023-04-02T07:52:50.901Z,22.30
2023-04-02T07:55:54.071Z,22.60
2023-04-02T07:58:56.497Z,22.80
2023-04-02T08:01:59.814Z,22.80
2023-04-02T08:05:02.805Z,22.50
2023-04-02T08:08:05.332Z,22.50
2023-04-02T08:11:07.796Z,22.80
2023-04-02T08:14:10.190Z,23.40
2023-04-02T08:17:12.213Z,23.90
2023-04-02T08:20:21.364Z,24.90
2023-04-02T08:23:25.492Z,25.80
2023-04-02T08:26:33.884Z,26.50
2023-04-02T08:29:36.106Z,27.10
2023-04-02T08:32:41.192Z,27.80
2023-04-02T08:35:43.323Z,28.20
2023-04-02T08:38:46.368Z,27.60
2023-04-02T08:41:56.045Z,28.30
2023-04-02T08:45:23.121Z,28.80
2023-04-02T08:48:31.388Z,28.90
2023-04-02T08:51:37.301Z,29.30
2023-04-02T08:54:39.337Z,30.10
2023-04-02T08:57:47.339Z,30.60
2023-04-02T09:00:53.902Z,30.80
2023-04-02T09:03:59.119Z,29.90
2023-04-02T09:07:01.242Z,29.90
2023-04-02T09:10:05.257Z,28.80
2023-04-02T09:13:20.660Z,27.40
2023-04-02T09:16:42.271Z,27.40
2023-04-02T09:19:52.291Z,28.40
2023-04-02T09:22:55.600Z,28.60
2023-04-02T09:26:04.008Z,28.90
2023-04-02T09:29:12.830Z,28.70
2023-04-02T09:32:33.573Z,29.20
2023-04-02T09:35:37.909Z,29.70
2023-04-02T09:38:40.025Z,29.40
2023-04-02T09:41:43.746Z,29.20
2023-04-02T09:44:45.894Z,29.60
2023-04-02T09:47:49.133Z,28.90
2023-04-02T09:51:05.937Z,28.50
2023-04-02T09:54:13.878Z,28.50
2023-04-02T09:57:24.249Z,29.30
2023-04-02T10:00:32.738Z,29.40
2023-04-02T10:03:35.262Z,29.50
2023-04-02T10:06:38.077Z,29.00
2023-04-02T10:09:40.898Z,29.40
2023-04-02T10:12:45.715Z,30.00
2023-04-02T10:15:47.745Z,29.80
2023-04-02T10:18:51.959Z,29.80
2023-04-02T10:21:55.903Z,29.80
2023-04-02T10:24:59.148Z,29.80
2023-04-02T10:28:19.006Z,29.50
2023-04-02T10:31:25.671Z,28.60
2023-04-02T10:34:37.497Z,28.70
2023-04-02T10:38:04.706Z,28.60
2023-04-02T10:41:09.740Z,28.70
2023-04-02T10:44:43.613Z,28.50
2023-04-02T10:47:57.327Z,29.10
2023-04-02T10:51:28.793Z,29.60
2023-04-02T10:55:02.795Z,29.50
2023-04-02T10:58:13.120Z,29.40
2023-04-02T11:01:20.375Z,27.60
2023-04-02T11:04:22.512Z,27.40
2023-04-02T11:07:28.956Z,28.80
2023-04-02T11:10:37.269Z,28.50
2023-04-02T11:13:42.070Z,28.20
2023-04-02T11:16:44.953Z,29.20
2023-04-02T11:19:47.448Z,29.50
2023-04-02T11:23:09.766Z,29.50
2023-04-02T11:26:47.595Z,28.40
2023-04-02T11:29:55.921Z,27.60
2023-04-02T11:33:42.072Z,27.20
2023-04-02T11:36:55.029Z,26.80
2023-04-02T11:39:59.448Z,27.60
2023-04-02T11:43:33.872Z,27.50
2023-04-02T11:46:45.630Z,26.70
2023-04-02T11:49:55.455Z,25.90
2023-04-02T11:53:26.476Z,25.20
2023-04-02T11:56:49.140Z,24.10
2023-04-02T12:00:13.294Z,24.20
2023-04-02T12:03:46.360Z,23.70
2023-04-02T12:06:51.227Z,23.50
2023-04-02T12:09:56.100Z,22.80
2023-04-02T12:12:59.063Z,22.60
2023-04-02T12:16:01.426Z,22.50
2023-04-02T12:19:09.533Z,22.40
2023-04-02T12:22:21.008Z,22.20
2023-04-02T12:25:29.423Z,21.60
2023-04-02T12:28:34.033Z,21.40
2023-04-02T12:31:36.824Z,21.40
2023-04-02T12:34:46.631Z,21.40
2023-04-02T12:37:53.747Z,21.30
2023-04-02T12:40:57.383Z,21.30
2023-04-02T12:44:03.595Z,21.20
2023-04-02T12:47:05.728Z,21.30
2023-04-02T12:50:15.297Z,21.20
2023-04-02T12:53:30.252Z,21.30
2023-04-02T12:56:32.306Z,21.30
2023-04-02T12:59:39.150Z,21.30
2023-04-02T13:02:47.462Z,21.30
2023-04-02T13:05:54.523Z,21.30
2023-04-02T13:08:57.768Z,21.30
2023-04-02T13:12:03.118Z,21.30
2023-04-02T13:15:18.100Z,21.30
2023-04-02T13:18:22.818Z,21.30
2023-04-02T13:21:28.446Z,21.20
2023-04-02T13:24:32.880Z,21.30
2023-04-02T13:27:34.890Z,21.30
2023-04-02T13:30:38.582Z,21.20
2023-04-02T13:33:40.688Z,21.10
2023-04-02T13:36:43.506Z,21.10
2023-04-02T13:39:47.544Z,21.20
2023-04-02T13:42:53.516Z,21.40
2023-04-02T13:46:10.010Z,21.50
2023-04-02T13:49:12.040Z,21.70
2023-04-02T13:52:17.528Z,21.70
2023-04-02T13:55:23.198Z,21.80
2023-04-02T13:58:26.696Z,21.80
2023-04-02T14:01:29.566Z,22.00
2023-04-02T14:04:36.126Z,22.00
2023-04-02T14:07:47.065Z,22.00
2023-04-02T14:11:10.787Z,22.10
2023-04-02T14:14:37.497Z,22.00
2023-04-02T14:18:01.517Z,21.90
2023-04-02T14:21:19.106Z,22.10
2023-04-02T14:24:39.661Z,22.10
2023-04-02T14:27:57.822Z,22.20
2023-04-02T14:31:38.896Z,22.40
2023-04-02T14:35:00.902Z,22.60
2023-04-02T14:38:21.796Z,22.50
2023-04-02T14:41:59.269Z,22.50
2023-04-02T14:45:24.594Z,22.50
2023-04-02T14:48:38.552Z,22.30
2023-04-02T14:51:57.765Z,22.40
2023-04-02T14:55:04.421Z,22.20
2023-04-02T14:58:16.332Z,22.30
2023-04-02T15:01:25.599Z,22.40
2023-04-02T15:04:41.611Z,22.50
2023-04-02T15:07:55.849Z,22.60
2023-04-02T15:11:04.938Z,22.70
2023-04-02T15:14:38.932Z,22.70
2023-04-02T15:17:40.996Z,22.60
2023-04-02T15:21:07.240Z,22.50
2023-04-02T15:24:43.414Z,22.70
2023-04-02T15:28:07.450Z,22.70
2023-04-02T15:31:14.576Z,22.60
2023-04-02T15:34:37.814Z,22.60
2023-04-02T15:37:57.574Z,22.60
2023-04-02T15:41:18.677Z,22.60
2023-04-02T15:44:20.769Z,22.50
2023-04-02T15:47:35.063Z,22.30
2023-04-02T15:50:54.760Z,22.50
2023-04-02T15:54:17.100Z,22.70
2023-04-02T15:58:06.529Z,22.80
2023-04-02T16:01:28.486Z,22.90
2023-04-02T16:04:55.536Z,22.90
2023-04-02T16:08:29.088Z,23.00
2023-04-02T16:11:31.288Z,23.10
2023-04-02T16:14:34.523Z,23.30
2023-04-02T16:17:41.494Z,23.40
2023-04-02T16:20:48.768Z,23.30
2023-04-02T16:23:51.843Z,23.30
2023-04-02T16:27:28.174Z,23.40
2023-04-02T16:30:36.206Z,23.50
2023-04-02T16:33:59.810Z,23.60
2023-04-02T16:37:08.459Z,23.60
2023-04-02T16:40:35.721Z,23.60
2023-04-02T16:43:53.770Z,23.60
2023-04-02T16:47:03.227Z,23.60
2023-04-02T16:50:08.485Z,23.60
2023-04-02T16:54:01.129Z,23.60
2023-04-02T16:57:21.634Z,23.50
2023-04-02T17:00:31.028Z,23.50
2023-04-02T17:03:57.149Z,23.50
2023-04-02T17:07:22.912Z,23.40
2023-04-02T17:10:31.115Z,23.30
2023-04-02T17:13:45.196Z,23.20
2023-04-02T17:16:56.245Z,23.20
2023-04-02T17:20:01.269Z,23.10
2023-04-02T17:23:15.785Z,23.10
2023-04-02T17:26:21.901Z,23.00
2023-04-02T17:29:39.488Z,22.90
2023-04-02T17:32:43.094Z,22.80
2023-04-02T17:36:01.158Z,22.80
2023-04-02T17:39:11.954Z,22.70
2023-04-02T17:42:43.006Z,22.70
2023-04-02T17:45:53.052Z,22.60
2023-04-02T17:49:18.002Z,22.50
2023-04-02T17:52:44.867Z,22.50
2023-04-02T17:55:58.620Z,22.30
2023-04-02T17:59:21.701Z,22.30
2023-04-02T18:02:50.467Z,22.10
2023-04-02T18:06:14.191Z,21.90
2023-04-02T18:09:47.624Z,21.80
2023-04-02T18:13:02.421Z,21.60
2023-04-02T18:16:11.347Z,21.50
2023-04-02T18:19:37.734Z,21.40
2023-04-02T18:23:01.286Z,21.40
2023-04-02T18:26:52.990Z,21.20
2023-04-02T18:30:20.795Z,21.00
2023-04-02T18:33:26.211Z,20.90
2023-04-02T18:37:01.403Z,20.80
2023-04-02T18:40:32.646Z,20.60
2023-04-02T18:43:57.591Z,20.60
2023-04-02T18:47:25.555Z,20.50
2023-04-02T18:50:41.218Z,20.40
2023-04-02T18:53:45.654Z,20.30
2023-04-02T18:56:48.065Z,20.10
2023-04-02T19:00:15.832Z,20.00
2023-04-02T19:03:38.186Z,19.80
2023-04-02T19:06:52.363Z,19.70
2023-04-02T19:10:00.234Z,19.50
2023-04-02T19:13:02.353Z,19.40
2023-04-02T19:16:49.205Z,19.30
2023-04-02T19:20:06.631Z,19.20
2023-04-02T19:23:27.764Z,19.10
2023-04-02T19:26:53.728Z,19.00
2023-04-02T19:30:26.591Z,19.00
2023-04-02T19:33:53.420Z,18.90
2023-04-02T19:37:09.866Z,18.80
2023-04-02T19:40:21.709Z,18.80
2023-04-02T19:43:24.615Z,18.60
2023-04-02T19:46:27.514Z,18.60
2023-04-02T19:49:34.902Z,18.60
2023-04-02T19:52:37.008Z,18.50
2023-04-02T19:55:40.739Z,18.50
2023-04-02T19:58:42.848Z,18.40
2023-04-02T20:01:45.084Z,18.30
2023-04-02T20:04:47.122Z,18.30
2023-04-02T20:07:49.189Z,18.20
2023-04-02T20:10:51.355Z,18.10
2023-04-02T20:13:56.266Z,18.00
2023-04-02T20:16:58.507Z,18.00
2023-04-02T20:20:00.628Z,17.90
2023-04-02T20:23:02.839Z,17.90
2023-04-02T20:26:06.235Z,17.90
2023-04-02T20:29:08.273Z,17.80
2023-04-02T20:32:10.987Z,17.70
2023-04-02T20:35:13.088Z,17.70
2023-04-02T20:38:15.760Z,17.60
2023-04-02T20:41:19.089Z,17.60
2023-04-02T20:44:21.845Z,17.50
2023-04-02T20:47:23.886Z,17.50
2023-04-02T20:50:26.005Z,17.50
2023-04-02T20:53:33.771Z,17.40
2023-04-02T20:56:35.732Z,17.40
2023-04-02T20:59:37.798Z,17.40
2023-04-02T21:02:39.884Z,17.40
2023-04-02T21:05:49.286Z,17.30
2023-04-02T21:08:52.423Z,17.30
2023-04-02T21:11:54.587Z,17.30
2023-04-02T21:15:00.994Z,17.30
2023-04-02T21:18:04.640Z,17.30
2023-04-02T21:21:07.263Z,17.20
2023-04-02T21:24:10.172Z,17.20
2023-04-02T21:27:12.623Z,17.20
2023-04-02T21:30:14.814Z,17.10
2023-04-02T21:33:17.868Z,17.00
2023-04-02T21:36:26.320Z,16.90
2023-04-02T21:39:28.807Z,16.90
2023-04-02T21:42:31.351Z,16.80
2023-04-02T21:45:33.424Z,16.80
2023-04-02T21:48:36.135Z,16.70
2023-04-02T21:51:39.916Z,16.60
2023-04-02T21:54:43.009Z,16.60
2023-04-02T21:57:45.029Z,16.60
2023-04-02T22:00:47.181Z,16.60
2023-04-02T22:03:49.399Z,16.60
2023-04-02T22:06:52.957Z,16.50
2023-04-02T22:09:55.100Z,16.50
2023-04-02T22:12:57.250Z,16.40
2023-04-02T22:16:34.269Z,16.40
2023-04-02T22:19:36.427Z,16.30
2023-04-02T22:22:38.445Z,16.30
2023-04-02T22:25:40.592Z,16.30
2023-04-02T22:28:43.051Z,16.30
2023-04-02T22:31:45.757Z,16.30
2023-04-02T22:34:47.842Z,16.30
2023-04-02T22:37:50.051Z,16.20
2023-04-02T22:40:52.187Z,16.30
2023-04-02T22:43:57.853Z,16.30
2023-04-02T22:47:01.356Z,16.20
2023-04-02T22:50:03.654Z,16.20
2023-04-02T22:53:06.550Z,16.20
2023-04-02T22:56:12.753Z,16.20
2023-04-02T22:59:15.794Z,16.10
2023-04-02T23:02:18.329Z,16.10
2023-04-02T23:05:21.956Z,16.00
2023-04-02T23:08:26.274Z,16.00
2023-04-02T23:11:28.878Z,16.00
2023-04-02T23:14:32.074Z,16.00
2023-04-02T23:17:36.802Z,16.00
2023-04-02T23:20:40.397Z,16.00
2023-04-02T23:23:43.257Z,16.00
2023-04-02T23:26:46.865Z,16.00
2023-04-02T23:29:50.265Z,16.00
2023-04-02T23:32:53.462Z,15.90
2023-04-02T23:35:55.848Z,15.90
2023-04-02T23:39:01.565Z,15.90
2023-04-02T23:42:04.027Z,15.90
2023-04-02T23:45:06.646Z,15.80
2023-04-02T23:48:09.129Z,15.80
2023-04-02T23:51:11.638Z,15.70
2023-04-02T23:54:14.609Z,15.80
2023-04-02T23:57:17.357Z,15.80
